Private Wetterstation Wechselburg
Wetterdaten: Woche 29.05.23 - 04.06.23 (KW22)
Datum Zeit Temp. +2m Bodentemp. Temp.+5cm Temp. Wind Windchill X Diff Temp. Feuchte +2m Feuchte +5cm Luftdruck Regen Wind Richtung Sonnenschein Taupunkt Windchill Windben
29.05.2023 00:00 9,8 C 16,9 C 8,6 C 9,1 C 7,8 C 0,0 C 76 % 67 % 1020,9 hPa 0,0 l/m 0,0 km/h (0 Bft) N 0,00 h 5,8 C 7,8 C 0,0 km/h (0 Bft)
29.05.2023 01:00 8,6 C 16,8 C 7,6 C 8,1 C 7,0 C 0,0 C 79 % 68 % 1020,9 hPa 0,0 l/m 0,0 km/h (0 Bft) N 0,00 h 5,2 C 7,0 C 0,0 km/h (0 Bft)
29.05.2023 02:00 7,5 C 16,6 C 6,7 C 7,0 C 6,0 C 0,0 C 81 % 70 % 1020,9 hPa 0,0 l/m 0,0 km/h (0 Bft) N 0,00 h 4,5 C 6,0 C 0,0 km/h (0 Bft)
29.05.2023 03:00 6,8 C 16,5 C 5,9 C 6,3 C 5,3 C 0,0 C 83 % 71 % 1020,6 hPa 0,0 l/m 0,0 km/h (0 Bft) N 0,00 h 4,0 C 5,3 C 0,0 km/h (0 Bft)
29.05.2023 04:00 6,1 C 16,3 C 5,5 C 5,7 C 4,9 C 0,0 C 84 % 71 % 1020,8 hPa 0,0 l/m 0,0 km/h (0 Bft) N 0,00 h 3,6 C 4,9 C 0,0 km/h (0 Bft)
29.05.2023 05:00 5,7 C 16,1 C 5,3 C 5,4 C 4,8 C 0,0 C 86 % 72 % 1021,2 hPa 0,0 l/m 0,0 km/h (0 Bft) N 0,00 h 3,4 C 4,8 C 0,0 km/h (0 Bft)
29.05.2023 06:00 5,9 C 15,9 C 5,7 C 5,8 C 5,6 C 0,0 C 87 % 74 % 1021,6 hPa 0,0 l/m 0,0 km/h (0 Bft) N 0,00 h 3,9 C 5,6 C 0,0 km/h (0 Bft)
29.05.2023 07:00 8,2 C 15,6 C 8,9 C 19,0 C 19,0 C 10,8 C 88 % 74 % 1022,0 hPa 0,0 l/m 0,0 km/h (0 Bft) N 0,83 h 6,3 C 19,0 C 0,0 km/h (0 Bft)
29.05.2023 08:00 13,6 C 15,4 C 10,8 C 27,1 C 27,1 C 13,6 C 81 % 71 % 1022,2 hPa 0,0 l/m 0,0 km/h (0 Bft) N 1,00 h 10,3 C 27,1 C 0,0 km/h (0 Bft)
29.05.2023 09:00 16,5 C 15,4 C 13,2 C 26,2 C 26,2 C 9,8 C 68 % 67 % 1022,6 hPa 0,0 l/m 0,0 km/h (0 Bft) N 1,00 h 10,6 C 26,2 C 0,0 km/h (0 Bft)
29.05.2023 10:00 17,8 C 15,4 C 16,2 C 24,2 C 24,2 C 6,4 C 62 % 55 % 1022,8 hPa 0,0 l/m 0,1 km/h (0 Bft) N 0,73 h 10,5 C 24,2 C 0,2 km/h (0 Bft)
29.05.2023 11:00 19,4 C 15,5 C 18,1 C 25,8 C 25,8 C 6,4 C 55 % 46 % 1022,8 hPa 0,0 l/m 0,3 km/h (0 Bft) N 1,00 h 10,1 C 25,8 C 2,0 km/h (1 Bft)
29.05.2023 12:00 21,3 C 15,7 C 19,7 C 27,7 C 27,7 C 6,4 C 50 % 43 % 1022,9 hPa 0,0 l/m 0,8 km/h (0 Bft) O-NO 1,00 h 10,6 C 27,7 C 3,2 km/h (1 Bft)
29.05.2023 13:00 22,9 C 15,9 C 21,3 C 28,9 C 28,9 C 5,9 C 44 % 40 % 1022,6 hPa 0,0 l/m 1,0 km/h (0 Bft) NO 1,00 h 9,9 C 28,9 C 2,2 km/h (1 Bft)
29.05.2023 14:00 23,0 C 16,2 C 23,2 C 28,8 C 28,8 C 5,8 C 43 % 38 % 1022,5 hPa 0,0 l/m 0,9 km/h (0 Bft) O-NO 1,00 h 9,8 C 28,8 C 2,1 km/h (1 Bft)
29.05.2023 15:00 23,1 C 16,4 C 23,1 C 29,2 C 29,2 C 6,1 C 42 % 36 % 1022,3 hPa 0,0 l/m 0,3 km/h (0 Bft) N 0,83 h 9,4 C 29,2 C 0,5 km/h (0 Bft)
29.05.2023 16:00 23,0 C 16,6 C 23,1 C 28,7 C 28,7 C 5,7 C 44 % 37 % 1022,0 hPa 0,0 l/m 0,6 km/h (0 Bft) N 1,00 h 10,0 C 28,7 C 1,4 km/h (1 Bft)
29.05.2023 17:00 22,7 C 16,8 C 22,6 C 25,6 C 25,6 C 3,0 C 43 % 36 % 1021,9 hPa 0,0 l/m 0,5 km/h (0 Bft) NO 0,33 h 9,4 C 25,6 C 1,1 km/h (0 Bft)
29.05.2023 18:00 22,4 C 16,9 C 21,8 C 23,9 C 23,9 C 1,5 C 44 % 36 % 1021,8 hPa 0,0 l/m 0,8 km/h (0 Bft) W-SW 0,00 h 9,5 C 23,9 C 1,5 km/h (1 Bft)
29.05.2023 19:00 21,1 C 17,0 C 20,2 C 21,7 C 21,7 C 0,6 C 47 % 38 % 1021,9 hPa 0,0 l/m 0,4 km/h (0 Bft) N 0,00 h 9,4 C 21,7 C 1,6 km/h (1 Bft)
29.05.2023 20:00 19,4 C 17,1 C 18,3 C 19,4 C 19,1 C 0,1 C 52 % 42 % 1022,2 hPa 0,0 l/m 0,1 km/h (0 Bft) N 0,00 h 9,2 C 19,1 C 0,5 km/h (0 Bft)
29.05.2023 21:00 17,4 C 17,2 C 16,1 C 17,0 C 16,2 C 0,0 C 55 % 44 % 1022,5 hPa 0,0 l/m 0,2 km/h (0 Bft) N 0,00 h 8,3 C 16,2 C 0,6 km/h (0 Bft)
29.05.2023 22:00 15,1 C 17,2 C 13,9 C 14,8 C 14,3 C 0,0 C 62 % 51 % 1023,0 hPa 0,0 l/m 0,0 km/h (0 Bft) N 0,00 h 8,0 C 14,3 C 0,0 km/h (0 Bft)
29.05.2023 23:00 13,7 C 17,1 C 12,6 C 13,4 C 12,9 C 0,0 C 68 % 55 % 1023,2 hPa 0,0 l/m 0,0 km/h (0 Bft) N 0,00 h 7,9 C 12,9 C 0,0 km/h (0 Bft)
30.05.2023 00:00 12,4 C 17,0 C 11,3 C 12,0 C 11,3 C 0,0 C 72 % 58 % 1023,6 hPa 0,0 l/m 0,0 km/h (0 Bft) N 0,00 h 7,4 C 11,3 C 0,0 km/h (0 Bft)
30.05.2023 01:00 11,1 C 16,9 C 10,0 C 10,6 C 9,7 C 0,0 C 74 % 62 % 1023,7 hPa 0,0 l/m 0,0 km/h (0 Bft) N 0,00 h 6,6 C 9,7 C 0,0 km/h (0 Bft)
30.05.2023 02:00 10,1 C 17,0 C 9,1 C 9,6 C 8,6 C 0,0 C 78 % 69 % 1023,7 hPa 0,0 l/m 0,0 km/h (0 Bft) N 0,00 h 6,5 C 8,6 C 0,0 km/h (0 Bft)
30.05.2023 03:00 9,1 C 16,9 C 8,1 C 8,5 C 7,5 C 0,0 C 80 % 71 % 1023,8 hPa 0,0 l/m 0,0 km/h (0 Bft) N 0,00 h 5,9 C 7,5 C 0,0 km/h (0 Bft)
30.05.2023 04:00 8,1 C 16,7 C 7,2 C 7,6 C 6,7 C 0,0 C 82 % 70 % 1023,8 hPa 0,0 l/m 0,0 km/h (0 Bft) N 0,00 h 5,2 C 6,7 C 0,0 km/h (0 Bft)
30.05.2023 05:00 7,3 C 16,7 C 6,6 C 6,9 C 6,1 C 0,0 C 83 % 72 % 1024,0 hPa 0,0 l/m 0,0 km/h (0 Bft) N 0,00 h 4,7 C 6,1 C 0,0 km/h (0 Bft)
30.05.2023 06:00 7,7 C 16,4 C 7,6 C 8,1 C 7,9 C 0,4 C 86 % 73 % 1024,6 hPa 0,0 l/m 0,0 km/h (0 Bft) N 0,00 h 5,5 C 7,9 C 0,0 km/h (0 Bft)
30.05.2023 07:00 9,4 C 16,1 C 9,7 C 13,0 C 13,0 C 3,7 C 86 % 69 % 1025,0 hPa 0,0 l/m 0,0 km/h (0 Bft) N 0,50 h 7,2 C 13,0 C 0,0 km/h (0 Bft)
30.05.2023 08:00 13,1 C 15,8 C 12,0 C 22,5 C 22,5 C 9,4 C 76 % 60 % 1025,3 hPa 0,0 l/m 0,0 km/h (0 Bft) N 1,00 h 9,0 C 22,5 C 0,0 km/h (0 Bft)
30.05.2023 09:00 15,9 C 15,7 C 13,3 C 24,0 C 24,0 C 8,1 C 60 % 52 % 1025,3 hPa 0,0 l/m 0,3 km/h (0 Bft) N 0,83 h 8,0 C 24,0 C 1,5 km/h (1 Bft)
30.05.2023 10:00 16,4 C 15,7 C 15,4 C 21,1 C 21,1 C 4,7 C 50 % 38 % 1025,5 hPa 0,0 l/m 1,0 km/h (0 Bft) NO 0,58 h 5,8 C 21,1 C 1,7 km/h (1 Bft)
30.05.2023 11:00 17,2 C 15,7 C 16,4 C 23,3 C 23,3 C 6,1 C 48 % 36 % 1025,7 hPa 0,0 l/m 0,7 km/h (0 Bft) NW 1,00 h 6,2 C 23,3 C 1,9 km/h (1 Bft)
30.05.2023 12:00 18,3 C 15,8 C 17,3 C 24,5 C 24,5 C 6,2 C 46 % 35 % 1025,6 hPa 0,0 l/m 0,9 km/h (0 Bft) NO 1,00 h 6,4 C 24,5 C 2,4 km/h (1 Bft)
30.05.2023 13:00 20,1 C 15,8 C 18,3 C 25,5 C 25,5 C 5,3 C 42 % 34 % 1025,6 hPa 0,0 l/m 1,1 km/h (0 Bft) NO 1,00 h 6,9 C 25,5 C 2,7 km/h (1 Bft)
30.05.2023 14:00 21,2 C 16,0 C 21,3 C 27,4 C 27,4 C 6,2 C 39 % 32 % 1025,3 hPa 0,0 l/m 0,5 km/h (0 Bft) N-NW 1,00 h 6,8 C 27,4 C 1,4 km/h (1 Bft)
30.05.2023 15:00 20,9 C 16,2 C 21,3 C 27,9 C 27,9 C 7,1 C 40 % 31 % 1025,1 hPa 0,0 l/m 1,0 km/h (0 Bft) O-NO 1,00 h 6,7 C 27,9 C 2,2 km/h (1 Bft)
30.05.2023 16:00 21,2 C 16,3 C 21,8 C 27,8 C 27,8 C 6,6 C 41 % 31 % 1024,9 hPa 0,0 l/m 0,8 km/h (0 Bft) W-SW 1,00 h 7,3 C 27,8 C 1,5 km/h (1 Bft)
30.05.2023 17:00 21,1 C 16,4 C 21,8 C 23,8 C 23,8 C 2,7 C 40 % 30 % 1024,8 hPa 0,0 l/m 0,4 km/h (0 Bft) N 0,25 h 6,9 C 23,8 C 0,6 km/h (0 Bft)
30.05.2023 18:00 21,2 C 16,6 C 20,9 C 22,4 C 22,4 C 1,3 C 39 % 30 % 1024,5 hPa 0,0 l/m 0,6 km/h (0 Bft) N-NO 0,00 h 6,7 C 22,4 C 1,1 km/h (0 Bft)
30.05.2023 19:00 20,8 C 16,8 C 20,1 C 21,8 C 21,8 C 1,0 C 40 % 31 % 1024,7 hPa 0,0 l/m 0,1 km/h (0 Bft) N 0,00 h 6,8 C 21,8 C 0,5 km/h (0 Bft)
30.05.2023 20:00 19,8 C 16,8 C 18,0 C 22,0 C 22,0 C 2,2 C 44 % 35 % 1024,8 hPa 0,0 l/m 0,0 km/h (0 Bft) N 0,92 h 7,0 C 22,0 C 0,0 km/h (0 Bft)
30.05.2023 21:00 16,9 C 16,9 C 14,7 C 16,4 C 15,3 C 0,0 C 52 % 43 % 1025,1 hPa 0,0 l/m 0,0 km/h (0 Bft) N 0,00 h 6,9 C 15,3 C 0,0 km/h (0 Bft)
30.05.2023 22:00 13,9 C 16,9 C 12,0 C 13,2 C 11,7 C 0,0 C 62 % 52 % 1025,5 hPa 0,0 l/m 0,0 km/h (0 Bft) N 0,00 h 6,8 C 11,7 C 0,0 km/h (0 Bft)
30.05.2023 23:00 11,7 C 16,9 C 10,3 C 11,0 C 9,7 C 0,0 C 70 % 57 % 1025,6 hPa 0,0 l/m 0,0 km/h (0 Bft) N 0,00 h 6,3 C 9,7 C 0,0 km/h (0 Bft)
31.05.2023 00:00 10,0 C 16,9 C 8,8 C 9,4 C 8,1 C 0,0 C 74 % 64 % 1025,8 hPa 0,0 l/m 0,0 km/h (0 Bft) N 0,00 h 5,6 C 8,1 C 0,0 km/h (0 Bft)
31.05.2023 01:00 8,8 C 16,8 C 7,7 C 8,2 C 6,9 C 0,0 C 77 % 66 % 1025,9 hPa 0,0 l/m 0,0 km/h (0 Bft) N 0,00 h 5,0 C 6,9 C 0,0 km/h (0 Bft)
31.05.2023 02:00 7,8 C 16,7 C 6,9 C 7,2 C 6,1 C 0,0 C 80 % 68 % 1025,9 hPa 0,0 l/m 0,0 km/h (0 Bft) N 0,00 h 4,6 C 6,1 C 0,0 km/h (0 Bft)
31.05.2023 03:00 6,9 C 16,6 C 6,0 C 6,4 C 5,4 C 0,0 C 82 % 69 % 1026,0 hPa 0,0 l/m 0,0 km/h (0 Bft) N 0,00 h 4,0 C 5,4 C 0,0 km/h (0 Bft)
31.05.2023 04:00 6,1 C 16,4 C 5,4 C 5,6 C 4,7 C 0,0 C 83 % 70 % 1026,1 hPa 0,0 l/m 0,0 km/h (0 Bft) N 0,00 h 3,4 C 4,7 C 0,0 km/h (0 Bft)
31.05.2023 05:00 5,6 C 16,1 C 5,1 C 5,2 C 4,4 C 0,0 C 84 % 70 % 1026,2 hPa 0,0 l/m 0,0 km/h (0 Bft) N 0,00 h 3,1 C 4,4 C 0,0 km/h (0 Bft)
31.05.2023 06:00 5,8 C 15,9 C 5,5 C 5,7 C 5,3 C 0,0 C 85 % 72 % 1026,3 hPa 0,0 l/m 0,0 km/h (0 Bft) N 0,00 h 3,5 C 5,3 C 0,0 km/h (0 Bft)
31.05.2023 07:00 9,4 C 15,5 C 9,0 C 20,9 C 20,9 C 11,6 C 87 % 69 % 1026,6 hPa 0,0 l/m 0,0 km/h (0 Bft) N 0,92 h 7,2 C 20,9 C 0,0 km/h (0 Bft)
31.05.2023 08:00 14,1 C 15,4 C 11,0 C 27,8 C 27,8 C 13,8 C 75 % 66 % 1026,7 hPa 0,0 l/m 0,0 km/h (0 Bft) N 1,00 h 9,7 C 27,8 C 0,0 km/h (0 Bft)
31.05.2023 09:00 17,8 C 15,4 C 14,9 C 26,8 C 26,8 C 9,0 C 63 % 60 % 1026,5 hPa 0,0 l/m 0,2 km/h (0 Bft) N 0,83 h 10,7 C 26,8 C 0,6 km/h (0 Bft)
31.05.2023 10:00 19,8 C 15,5 C 18,7 C 24,4 C 24,4 C 4,6 C 51 % 44 % 1026,1 hPa 0,0 l/m 1,7 km/h (1 Bft) O-NO 0,73 h 9,4 C 24,4 C 5,4 km/h (1 Bft)
31.05.2023 11:00 20,9 C 15,7 C 20,1 C 25,8 C 25,8 C 4,9 C 45 % 38 % 1025,8 hPa 0,0 l/m 2,5 km/h (1 Bft) O-NO 1,00 h 8,6 C 25,8 C 4,6 km/h (1 Bft)
31.05.2023 12:00 22,2 C 15,9 C 20,9 C 28,1 C 28,1 C 5,8 C 43 % 36 % 1025,4 hPa 0,0 l/m 1,3 km/h (1 Bft) O 1,00 h 9,0 C 28,1 C 1,1 km/h (1 Bft)
31.05.2023 13:00 23,2 C 16,1 C 21,5 C 28,1 C 28,1 C 4,9 C 40 % 35 % 1024,8 hPa 0,0 l/m 2,2 km/h (1 Bft) O-NO 1,00 h 9,0 C 28,1 C 2,8 km/h (1 Bft)
31.05.2023 14:00 23,4 C 16,4 C 23,9 C 28,6 C 28,6 C 5,2 C 39 % 34 % 1024,7 hPa 0,0 l/m 2,8 km/h (1 Bft) O-NO 1,00 h 8,8 C 28,6 C 5,5 km/h (1 Bft)
31.05.2023 15:00 23,2 C 16,7 C 24,0 C 28,9 C 28,9 C 5,8 C 39 % 33 % 1024,5 hPa 0,0 l/m 2,1 km/h (1 Bft) O-NO 1,00 h 8,4 C 28,9 C 4,1 km/h (1 Bft)
31.05.2023 16:00 23,5 C 16,8 C 24,4 C 29,6 C 29,6 C 6,1 C 39 % 33 % 1023,9 hPa 0,0 l/m 1,8 km/h (1 Bft) O-NO 1,00 h 8,9 C 29,6 C 2,0 km/h (1 Bft)
31.05.2023 17:00 23,8 C 17,0 C 24,6 C 26,9 C 26,9 C 3,1 C 39 % 33 % 1023,5 hPa 0,0 l/m 1,2 km/h (1 Bft) O-NO 0,33 h 9,0 C 26,9 C 2,1 km/h (1 Bft)
31.05.2023 18:00 23,6 C 17,2 C 22,9 C 24,8 C 24,8 C 1,3 C 40 % 34 % 1022,8 hPa 0,0 l/m 0,3 km/h (0 Bft) N 0,00 h 9,3 C 24,8 C 0,0 km/h (0 Bft)
31.05.2023 19:00 23,6 C 17,4 C 22,4 C 24,4 C 24,4 C 0,8 C 42 % 35 % 1022,3 hPa 0,0 l/m 0,0 km/h (0 Bft) N 0,00 h 9,8 C 24,4 C 0,0 km/h (0 Bft)
31.05.2023 20:00 22,3 C 17,5 C 19,8 C 24,4 C 24,4 C 2,1 C 45 % 41 % 1021,9 hPa 0,0 l/m 0,0 km/h (0 Bft) N 0,83 h 9,8 C 24,4 C 0,0 km/h (0 Bft)
31.05.2023 21:00 18,9 C 17,6 C 16,2 C 24,4 C 24,4 C 5,5 C 56 % 50 % 1021,9 hPa 0,0 l/m 0,0 km/h (0 Bft) N 0,00 h 9,8 C 24,4 C 0,0 km/h (0 Bft)
31.05.2023 22:00 15,8 C 17,5 C 14,0 C 15,0 C 13,6 C 0,0 C 66 % 59 % 1021,9 hPa 0,0 l/m 0,0 km/h (0 Bft) N 0,00 h 9,5 C 13,6 C 0,0 km/h (0 Bft)
31.05.2023 23:00 13,6 C 17,6 C 12,2 C 12,9 C 11,6 C 0,0 C 73 % 64 % 1021,6 hPa 0,0 l/m 0,0 km/h (0 Bft) N 0,00 h 8,8 C 11,6 C 0,0 km/h (0 Bft)
01.06.2023 00:00 11,9 C 17,5 C 10,8 C 11,4 C 10,3 C 0,0 C 78 % 68 % 1021,7 hPa 0,0 l/m 0,0 km/h (0 Bft) N 0,00 h 8,2 C 10,3 C 0,0 km/h (0 Bft)
01.06.2023 01:00 10,8 C 17,5 C 9,9 C 10,3 C 9,3 C 0,0 C 81 % 70 % 1021,7 hPa 0,0 l/m 0,0 km/h (0 Bft) N 0,00 h 7,6 C 9,3 C 0,0 km/h (0 Bft)
01.06.2023 02:00 9,8 C 17,4 C 9,1 C 9,3 C 8,4 C 0,0 C 82 % 72 % 1021,4 hPa 0,0 l/m 0,0 km/h (0 Bft) N 0,00 h 6,9 C 8,4 C 0,0 km/h (0 Bft)
01.06.2023 03:00 9,2 C 17,2 C 8,4 C 8,7 C 7,8 C 0,0 C 83 % 72 % 1021,4 hPa 0,0 l/m 0,0 km/h (0 Bft) N 0,00 h 6,5 C 7,8 C 0,0 km/h (0 Bft)
01.06.2023 04:00 8,5 C 17,1 C 7,8 C 8,1 C 7,2 C 0,0 C 84 % 73 % 1021,3 hPa 0,0 l/m 0,0 km/h (0 Bft) N 0,00 h 6,0 C 7,2 C 0,0 km/h (0 Bft)
01.06.2023 05:00 8,0 C 16,9 C 7,6 C 7,7 C 7,0 C 0,0 C 85 % 74 % 1021,4 hPa 0,0 l/m 0,0 km/h (0 Bft) N 0,00 h 5,7 C 7,0 C 0,0 km/h (0 Bft)
01.06.2023 06:00 8,4 C 16,6 C 8,2 C 8,4 C 8,2 C 0,0 C 87 % 75 % 1021,3 hPa 0,0 l/m 0,0 km/h (0 Bft) N 0,00 h 6,3 C 8,2 C 0,0 km/h (0 Bft)
01.06.2023 07:00 10,8 C 16,3 C 10,7 C 19,7 C 19,7 C 8,9 C 88 % 74 % 1021,3 hPa 0,0 l/m 0,0 km/h (0 Bft) N 0,83 h 8,9 C 19,7 C 0,0 km/h (0 Bft)
01.06.2023 08:00 16,0 C 16,1 C 13,1 C 29,0 C 29,0 C 13,0 C 77 % 70 % 1021,2 hPa 0,0 l/m 0,0 km/h (0 Bft) N 1,00 h 11,8 C 29,0 C 0,0 km/h (0 Bft)
01.06.2023 09:00 17,7 C 16,1 C 14,8 C 26,3 C 26,3 C 8,6 C 66 % 64 % 1021,0 hPa 0,0 l/m 0,0 km/h (0 Bft) N 1,00 h 11,2 C 26,3 C 0,4 km/h (0 Bft)
01.06.2023 10:00 17,8 C 16,2 C 16,1 C 25,6 C 25,6 C 7,8 C 67 % 62 % 1020,6 hPa 0,0 l/m 0,0 km/h (0 Bft) N 1,00 h 11,5 C 25,6 C 0,0 km/h (0 Bft)
01.06.2023 11:00 19,4 C 16,3 C 18,1 C 28,1 C 28,1 C 8,7 C 63 % 57 % 1020,1 hPa 0,0 l/m 0,1 km/h (0 Bft) N 1,00 h 12,2 C 28,1 C 0,4 km/h (0 Bft)
01.06.2023 12:00 21,7 C 16,4 C 20,2 C 29,4 C 29,4 C 7,7 C 57 % 52 % 1019,9 hPa 0,0 l/m 0,5 km/h (0 Bft) SW 1,00 h 12,8 C 29,4 C 1,7 km/h (1 Bft)
01.06.2023 13:00 24,4 C 16,6 C 21,4 C 30,2 C 30,2 C 5,8 C 52 % 51 % 1019,2 hPa 0,0 l/m 0,3 km/h (0 Bft) N 1,00 h 13,8 C 30,2 C 0,9 km/h (0 Bft)
01.06.2023 14:00 24,6 C 16,8 C 24,0 C 30,2 C 30,2 C 5,7 C 48 % 46 % 1018,8 hPa 0,0 l/m 0,5 km/h (0 Bft) N 1,00 h 12,8 C 30,2 C 1,8 km/h (1 Bft)
01.06.2023 15:00 24,0 C 17,0 C 24,5 C 30,9 C 30,9 C 6,9 C 43 % 39 % 1018,6 hPa 0,0 l/m 0,9 km/h (0 Bft) S-SO 1,00 h 10,7 C 30,9 C 3,0 km/h (1 Bft)
01.06.2023 16:00 23,7 C 17,2 C 24,2 C 30,1 C 30,1 C 6,4 C 42 % 36 % 1018,3 hPa 0,0 l/m 1,0 km/h (0 Bft) W-SW 1,00 h 10,1 C 30,1 C 3,3 km/h (1 Bft)
01.06.2023 17:00 23,6 C 17,3 C 24,1 C 26,3 C 26,3 C 2,7 C 40 % 34 % 1018,1 hPa 0,0 l/m 0,9 km/h (0 Bft) SW 0,25 h 9,2 C 26,3 C 1,4 km/h (1 Bft)
01.06.2023 18:00 22,8 C 17,5 C 22,3 C 24,2 C 24,2 C 1,4 C 46 % 39 % 1017,7 hPa 0,0 l/m 1,0 km/h (0 Bft) O-NO 0,00 h 10,7 C 24,2 C 0,7 km/h (0 Bft)
01.06.2023 19:00 21,3 C 17,6 C 20,6 C 22,1 C 22,1 C 0,8 C 52 % 43 % 1017,3 hPa 0,0 l/m 1,2 km/h (1 Bft) W 0,00 h 11,1 C 22,1 C 2,4 km/h (1 Bft)
01.06.2023 20:00 19,5 C 17,6 C 18,6 C 20,7 C 20,6 C 1,2 C 56 % 45 % 1017,4 hPa 0,0 l/m 1,1 km/h (1 Bft) SW 0,77 h 10,4 C 20,6 C 1,4 km/h (1 Bft)
01.06.2023 21:00 17,2 C 17,7 C 16,3 C 16,8 C 16,0 C 0,0 C 63 % 51 % 1017,7 hPa 0,0 l/m 0,2 km/h (0 Bft) N 0,00 h 10,0 C 16,0 C 0,0 km/h (0 Bft)
01.06.2023 22:00 15,2 C 17,6 C 14,5 C 14,7 C 13,7 C 0,0 C 69 % 56 % 1018,4 hPa 0,0 l/m 0,1 km/h (0 Bft) N 0,00 h 9,6 C 13,7 C 0,3 km/h (0 Bft)
01.06.2023 23:00 13,7 C 17,6 C 13,1 C 13,2 C 12,3 C 0,0 C 73 % 60 % 1018,5 hPa 0,0 l/m 0,1 km/h (0 Bft) N 0,00 h 9,0 C 12,3 C 0,5 km/h (0 Bft)
02.06.2023 00:00 12,3 C 17,6 C 11,6 C 11,8 C 10,9 C 0,0 C 77 % 63 % 1018,8 hPa 0,0 l/m 0,0 km/h (0 Bft) N 0,00 h 8,3 C 10,9 C 0,0 km/h (0 Bft)
02.06.2023 01:00 11,0 C 17,5 C 10,2 C 10,5 C 9,6 C 0,0 C 79 % 65 % 1019,4 hPa 0,0 l/m 0,0 km/h (0 Bft) N 0,00 h 7,5 C 9,6 C 0,0 km/h (0 Bft)
02.06.2023 02:00 9,9 C 17,4 C 9,2 C 9,4 C 8,5 C 0,0 C 81 % 68 % 1019,1 hPa 0,0 l/m 0,0 km/h (0 Bft) N 0,00 h 6,8 C 8,5 C 0,0 km/h (0 Bft)
02.06.2023 03:00 9,0 C 17,3 C 8,2 C 8,5 C 7,5 C 0,0 C 83 % 71 % 1019,3 hPa 0,0 l/m 0,0 km/h (0 Bft) N 0,00 h 6,2 C 7,5 C 0,0 km/h (0 Bft)
02.06.2023 04:00 8,7 C 17,0 C 8,6 C 8,4 C 7,9 C 0,0 C 84 % 72 % 1019,3 hPa 0,0 l/m 0,0 km/h (0 Bft) N 0,00 h 6,2 C 7,9 C 0,0 km/h (0 Bft)
02.06.2023 05:00 9,2 C 16,7 C 9,6 C 9,3 C 9,3 C 0,2 C 85 % 68 % 1019,8 hPa 0,0 l/m 0,0 km/h (0 Bft) N 0,00 h 6,8 C 9,3 C 0,2 km/h (0 Bft)
02.06.2023 06:00 9,6 C 16,5 C 9,9 C 10,2 C 10,2 C 0,6 C 84 % 65 % 1020,0 hPa 0,0 l/m 0,1 km/h (0 Bft) N 0,00 h 7,0 C 10,2 C 1,1 km/h (1 Bft)
02.06.2023 07:00 10,0 C 16,4 C 10,3 C 11,0 C 11,0 C 1,0 C 82 % 62 % 1020,3 hPa 0,0 l/m 0,0 km/h (0 Bft) N 0,00 h 7,0 C 11,0 C 0,0 km/h (0 Bft)
02.06.2023 08:00 10,6 C 16,3 C 11,1 C 12,7 C 12,7 C 2,0 C 79 % 60 % 1020,6 hPa 0,0 l/m 0,0 km/h (0 Bft) N 0,00 h 7,2 C 12,7 C 0,0 km/h (0 Bft)
02.06.2023 09:00 11,7 C 16,0 C 12,6 C 15,9 C 15,9 C 4,2 C 76 % 58 % 1021,0 hPa 0,0 l/m 0,1 km/h (0 Bft) N 1,00 h 7,6 C 15,9 C 1,0 km/h (0 Bft)
02.06.2023 10:00 13,3 C 16,0 C 14,0 C 20,1 C 20,1 C 6,8 C 73 % 56 % 1020,8 hPa 0,0 l/m 0,1 km/h (0 Bft) N 1,00 h 8,6 C 20,1 C 0,0 km/h (0 Bft)
02.06.2023 11:00 14,5 C 16,0 C 14,8 C 20,3 C 20,3 C 5,8 C 71 % 55 % 1021,0 hPa 0,0 l/m 0,1 km/h (0 Bft) N 1,00 h 9,3 C 20,3 C 0,6 km/h (0 Bft)
02.06.2023 12:00 16,4 C 16,0 C 16,6 C 23,6 C 23,6 C 7,2 C 66 % 53 % 1020,9 hPa 0,0 l/m 0,2 km/h (0 Bft) N 1,00 h 10,1 C 23,6 C 0,0 km/h (0 Bft)
02.06.2023 13:00 17,2 C 16,0 C 17,0 C 21,1 C 21,1 C 3,9 C 62 % 50 % 1021,1 hPa 0,0 l/m 0,3 km/h (0 Bft) N 0,67 h 9,9 C 21,1 C 0,6 km/h (0 Bft)
02.06.2023 14:00 17,7 C 16,1 C 17,8 C 21,3 C 21,3 C 3,6 C 60 % 49 % 1020,9 hPa 0,0 l/m 0,2 km/h (0 Bft) N 0,52 h 9,9 C 21,3 C 1,3 km/h (1 Bft)
02.06.2023 15:00 17,9 C 16,2 C 17,9 C 21,3 C 21,3 C 3,3 C 59 % 47 % 1021,1 hPa 0,0 l/m 0,5 km/h (0 Bft) O-NO 0,58 h 9,8 C 21,3 C 0,2 km/h (0 Bft)
02.06.2023 16:00 17,2 C 16,2 C 17,0 C 19,4 C 19,4 C 2,2 C 63 % 49 % 1021,0 hPa 0,0 l/m 0,0 km/h (0 Bft) N 0,00 h 10,0 C 19,4 C 0,0 km/h (0 Bft)
02.06.2023 17:00 17,6 C 16,3 C 17,6 C 20,3 C 20,3 C 2,7 C 61 % 49 % 1021,0 hPa 0,0 l/m 0,4 km/h (0 Bft) N 0,00 h 9,9 C 20,3 C 0,0 km/h (0 Bft)
02.06.2023 18:00 17,5 C 16,3 C 16,9 C 18,3 C 18,3 C 0,8 C 61 % 49 % 1021,0 hPa 0,0 l/m 0,1 km/h (0 Bft) N 0,00 h 9,8 C 18,3 C 0,0 km/h (0 Bft)
02.06.2023 19:00 17,2 C 16,4 C 16,3 C 17,6 C 17,6 C 0,5 C 61 % 51 % 1021,1 hPa 0,0 l/m 0,0 km/h (0 Bft) N 0,00 h 9,6 C 17,6 C 0,0 km/h (0 Bft)
02.06.2023 20:00 16,4 C 16,4 C 15,2 C 16,3 C 16,0 C 0,0 C 65 % 55 % 1021,2 hPa 0,0 l/m 0,0 km/h (0 Bft) N 0,00 h 9,7 C 16,0 C 0,0 km/h (0 Bft)
02.06.2023 21:00 14,7 C 16,4 C 13,0 C 14,2 C 13,1 C 0,0 C 69 % 61 % 1021,5 hPa 0,0 l/m 0,0 km/h (0 Bft) N 0,00 h 9,0 C 13,1 C 0,0 km/h (0 Bft)
02.06.2023 22:00 12,6 C 16,4 C 11,4 C 12,1 C 11,0 C 0,0 C 68 % 56 % 1022,3 hPa 0,0 l/m 0,2 km/h (0 Bft) N 0,00 h 7,0 C 11,0 C 0,0 km/h (0 Bft)
02.06.2023 23:00 10,6 C 16,3 C 9,5 C 10,0 C 8,9 C 0,0 C 67 % 51 % 1022,7 hPa 0,0 l/m 0,0 km/h (0 Bft) N 0,00 h 4,6 C 8,9 C 0,0 km/h (0 Bft)
03.06.2023 00:00 9,1 C 16,1 C 8,2 C 8,7 C 7,9 C 0,0 C 67 % 52 % 1022,9 hPa 0,0 l/m 0,0 km/h (0 Bft) N 0,00 h 3,3 C 7,9 C 0,0 km/h (0 Bft)
03.06.2023 01:00 8,4 C 15,9 C 7,7 C 8,1 C 7,5 C 0,0 C 67 % 49 % 1023,2 hPa 0,0 l/m 0,0 km/h (0 Bft) N 0,00 h 2,6 C 7,5 C 0,0 km/h (0 Bft)
03.06.2023 02:00 8,1 C 15,7 C 7,0 C 7,8 C 7,2 C 0,0 C 66 % 50 % 1023,3 hPa 0,0 l/m 0,0 km/h (0 Bft) N 0,00 h 2,2 C 7,2 C 0,0 km/h (0 Bft)
03.06.2023 03:00 7,1 C 15,6 C 6,3 C 6,8 C 6,1 C 0,0 C 69 % 52 % 1023,6 hPa 0,0 l/m 0,0 km/h (0 Bft) N 0,00 h 1,8 C 6,1 C 0,0 km/h (0 Bft)
03.06.2023 04:00 5,6 C 15,4 C 4,9 C 5,2 C 4,3 C 0,0 C 73 % 56 % 1023,5 hPa 0,0 l/m 0,0 km/h (0 Bft) N 0,00 h 1,2 C 4,3 C 0,0 km/h (0 Bft)
03.06.2023 05:00 4,5 C 15,2 C 3,8 C 4,0 C 3,0 C 0,0 C 77 % 60 % 1023,7 hPa 0,0 l/m 0,0 km/h (0 Bft) N 0,00 h 0,8 C 3,0 C 0,0 km/h (0 Bft)
03.06.2023 06:00 4,6 C 15,0 C 4,7 C 4,6 C 4,3 C 0,2 C 80 % 64 % 1023,8 hPa 0,0 l/m 0,0 km/h (0 Bft) N 0,00 h 1,4 C 4,3 C 0,0 km/h (0 Bft)
03.06.2023 07:00 8,1 C 14,7 C 8,3 C 17,2 C 17,2 C 9,1 C 79 % 57 % 1024,0 hPa 0,0 l/m 0,0 km/h (0 Bft) N 0,92 h 4,6 C 17,2 C 0,0 km/h (0 Bft)
03.06.2023 08:00 13,1 C 14,7 C 11,4 C 22,9 C 22,9 C 9,8 C 66 % 52 % 1024,2 hPa 0,0 l/m 0,2 km/h (0 Bft) O-NO 1,00 h 6,7 C 22,9 C 1,6 km/h (1 Bft)
03.06.2023 09:00 15,5 C 14,8 C 14,0 C 20,5 C 20,5 C 5,0 C 58 % 48 % 1024,2 hPa 0,0 l/m 2,2 km/h (1 Bft) O-NO 0,67 h 7,3 C 20,5 C 4,9 km/h (1 Bft)
03.06.2023 10:00 16,5 C 14,8 C 15,9 C 21,0 C 21,0 C 4,5 C 52 % 40 % 1024,1 hPa 0,0 l/m 2,5 km/h (1 Bft) NO 0,73 h 6,5 C 21,0 C 5,7 km/h (1 Bft)
03.06.2023 11:00 17,5 C 15,0 C 16,8 C 23,3 C 23,3 C 5,8 C 45 % 35 % 1024,1 hPa 0,0 l/m 2,8 km/h (1 Bft) O-NO 0,92 h 5,3 C 23,3 C 6,7 km/h (2 Bft)
03.06.2023 12:00 18,4 C 15,1 C 17,8 C 23,3 C 23,3 C 4,9 C 39 % 30 % 1023,7 hPa 0,0 l/m 4,3 km/h (1 Bft) O-NO 1,00 h 4,3 C 23,3 C 4,9 km/h (1 Bft)
03.06.2023 13:00 19,1 C 15,3 C 18,4 C 23,1 C 23,1 C 4,0 C 37 % 28 % 1023,6 hPa 0,0 l/m 5,4 km/h (1 Bft) O-NO 1,00 h 3,9 C 23,1 C 8,9 km/h (2 Bft)
03.06.2023 14:00 19,3 C 15,5 C 20,5 C 23,9 C 23,9 C 4,6 C 35 % 27 % 1024,0 hPa 0,0 l/m 4,3 km/h (1 Bft) O-NO 1,00 h 3,5 C 23,9 C 3,8 km/h (1 Bft)
03.06.2023 15:00 19,5 C 15,7 C 20,5 C 25,2 C 25,2 C 5,7 C 37 % 27 % 1023,6 hPa 0,0 l/m 2,6 km/h (1 Bft) O-NO 1,00 h 4,3 C 25,2 C 3,1 km/h (1 Bft)
03.06.2023 16:00 19,4 C 15,8 C 20,4 C 24,3 C 24,3 C 5,0 C 36 % 26 % 1023,4 hPa 0,0 l/m 4,3 km/h (1 Bft) O-NO 1,00 h 3,8 C 24,3 C 4,6 km/h (1 Bft)
03.06.2023 17:00 19,4 C 15,9 C 20,4 C 22,4 C 22,4 C 3,0 C 36 % 25 % 1022,8 hPa 0,0 l/m 3,0 km/h (1 Bft) O-NO 0,33 h 3,8 C 22,4 C 4,1 km/h (1 Bft)
03.06.2023 18:00 19,1 C 16,0 C 19,2 C 20,0 C 20,0 C 0,9 C 35 % 25 % 1022,3 hPa 0,0 l/m 3,9 km/h (1 Bft) O-NO 0,00 h 3,4 C 20,0 C 5,6 km/h (1 Bft)
03.06.2023 19:00 18,6 C 16,1 C 18,4 C 19,3 C 19,3 C 0,6 C 37 % 25 % 1022,1 hPa 0,0 l/m 3,6 km/h (1 Bft) O-NO 0,00 h 3,5 C 19,3 C 4,5 km/h (1 Bft)
03.06.2023 20:00 17,0 C 16,2 C 16,1 C 17,3 C 17,2 C 0,3 C 40 % 28 % 1022,1 hPa 0,0 l/m 0,5 km/h (0 Bft) O-NO 0,17 h 3,4 C 17,2 C 0,2 km/h (0 Bft)
03.06.2023 21:00 14,6 C 16,1 C 12,9 C 14,1 C 13,1 C 0,0 C 49 % 36 % 1022,5 hPa 0,0 l/m 0,0 km/h (0 Bft) N 0,00 h 4,1 C 13,1 C 0,0 km/h (0 Bft)
03.06.2023 22:00 11,9 C 16,1 C 10,3 C 11,2 C 9,8 C 0,0 C 60 % 45 % 1022,8 hPa 0,0 l/m 0,0 km/h (0 Bft) N 0,00 h 4,3 C 9,8 C 0,0 km/h (0 Bft)
03.06.2023 23:00 9,7 C 16,0 C 8,6 C 9,1 C 7,8 C 0,0 C 67 % 49 % 1023,0 hPa 0,0 l/m 0,0 km/h (0 Bft) N 0,00 h 3,9 C 7,8 C 0,0 km/h (0 Bft)
04.06.2023 00:00 8,2 C 15,9 C 7,2 C 7,6 C 6,5 C 0,0 C 72 % 55 % 1023,0 hPa 0,0 l/m 0,0 km/h (0 Bft) N 0,00 h 3,4 C 6,5 C 0,0 km/h (0 Bft)
04.06.2023 01:00 6,9 C 15,9 C 5,9 C 6,2 C 5,0 C 0,0 C 75 % 61 % 1023,4 hPa 0,0 l/m 0,0 km/h (0 Bft) N 0,00 h 2,8 C 5,0 C 0,0 km/h (0 Bft)
04.06.2023 02:00 5,8 C 15,8 C 5,0 C 5,2 C 3,9 C 0,0 C 78 % 63 % 1023,0 hPa 0,0 l/m 0,0 km/h (0 Bft) N 0,00 h 2,3 C 3,9 C 0,0 km/h (0 Bft)
04.06.2023 03:00 4,9 C 15,6 C 4,1 C 4,3 C 3,1 C 0,0 C 80 % 65 % 1022,6 hPa 0,0 l/m 0,0 km/h (0 Bft) N 0,00 h 1,7 C 3,1 C 0,0 km/h (0 Bft)
04.06.2023 04:00 4,1 C 15,4 C 3,4 C 3,5 C 2,3 C 0,0 C 82 % 66 % 1022,6 hPa 0,0 l/m 0,0 km/h (0 Bft) N 0,00 h 1,3 C 2,3 C 0,0 km/h (0 Bft)
04.06.2023 05:00 3,6 C 15,2 C 3,0 C 3,1 C 2,1 C 0,0 C 83 % 67 % 1023,0 hPa 0,0 l/m 0,0 km/h (0 Bft) N 0,00 h 0,9 C 2,1 C 0,0 km/h (0 Bft)
04.06.2023 06:00 3,9 C 14,9 C 3,8 C 3,7 C 3,2 C 0,0 C 85 % 69 % 1023,2 hPa 0,0 l/m 0,0 km/h (0 Bft) N 0,00 h 1,6 C 3,2 C 0,0 km/h (0 Bft)
04.06.2023 07:00 6,9 C 14,6 C 7,2 C 16,7 C 16,7 C 9,8 C 86 % 66 % 1023,3 hPa 0,0 l/m 0,0 km/h (0 Bft) N 0,83 h 4,7 C 16,7 C 0,0 km/h (0 Bft)
04.06.2023 08:00 12,2 C 14,5 C 9,7 C 26,1 C 26,1 C 13,8 C 74 % 61 % 1023,6 hPa 0,0 l/m 0,0 km/h (0 Bft) N 1,00 h 7,7 C 26,1 C 0,0 km/h (0 Bft)
04.06.2023 09:00 15,5 C 14,5 C 12,4 C 26,6 C 26,6 C 11,1 C 62 % 56 % 1023,9 hPa 0,0 l/m 0,0 km/h (0 Bft) N 1,00 h 8,1 C 26,6 C 0,2 km/h (0 Bft)
04.06.2023 10:00 17,6 C 14,5 C 16,8 C 22,1 C 22,1 C 4,6 C 46 % 35 % 1023,9 hPa 0,0 l/m 3,9 km/h (1 Bft) O-NO 0,82 h 5,7 C 22,1 C 6,0 km/h (2 Bft)
04.06.2023 11:00 18,6 C 14,7 C 18,1 C 23,9 C 23,9 C 5,2 C 41 % 31 % 1023,8 hPa 0,0 l/m 3,0 km/h (1 Bft) O-NO 1,00 h 5,1 C 23,9 C 4,4 km/h (1 Bft)
04.06.2023 12:00 20,1 C 14,8 C 18,9 C 26,3 C 26,3 C 6,2 C 39 % 31 % 1023,6 hPa 0,0 l/m 1,8 km/h (1 Bft) NO 1,00 h 5,8 C 26,3 C 3,0 km/h (1 Bft)
04.06.2023 13:00 22,1 C 15,1 C 20,0 C 27,3 C 27,3 C 5,2 C 36 % 30 % 1023,5 hPa 0,0 l/m 1,3 km/h (1 Bft) O 1,00 h 6,1 C 27,3 C 1,6 km/h (1 Bft)
04.06.2023 14:00 22,0 C 15,3 C 22,6 C 27,5 C 27,5 C 5,5 C 35 % 28 % 1023,3 hPa 0,0 l/m 2,2 km/h (1 Bft) O-NO 1,00 h 5,6 C 27,5 C 4,9 km/h (1 Bft)
04.06.2023 15:00 21,7 C 15,5 C 22,6 C 28,5 C 28,5 C 6,8 C 33 % 27 % 1023,0 hPa 0,0 l/m 0,9 km/h (0 Bft) O-NO 1,00 h 4,9 C 28,5 C 3,3 km/h (1 Bft)
04.06.2023 16:00 22,3 C 15,7 C 23,0 C 29,1 C 29,1 C 6,8 C 32 % 25 % 1022,8 hPa 0,0 l/m 0,0 km/h (0 Bft) N 1,00 h 4,6 C 29,1 C 0,0 km/h (0 Bft)
04.06.2023 17:00 22,0 C 16,0 C 22,9 C 29,1 C 29,1 C 7,1 C 32 % 25 % 1022,4 hPa 0,0 l/m 0,0 km/h (0 Bft) N 1,00 h 4,3 C 29,1 C 0,0 km/h (0 Bft)
04.06.2023 18:00 21,8 C 16,1 C 21,7 C 29,1 C 29,1 C 7,3 C 32 % 25 % 1022,3 hPa 0,0 l/m 0,0 km/h (0 Bft) N 1,00 h 4,3 C 29,1 C 0,0 km/h (0 Bft)
04.06.2023 19:00 21,4 C 16,2 C 20,8 C 29,1 C 29,1 C 7,7 C 35 % 25 % 1022,4 hPa 0,0 l/m 0,0 km/h (0 Bft) N 1,00 h 5,1 C 29,1 C 0,0 km/h (0 Bft)
04.06.2023 20:00 19,7 C 16,3 C 17,6 C 29,1 C 29,1 C 9,4 C 41 % 32 % 1022,0 hPa 0,0 l/m 0,0 km/h (0 Bft) N 1,07 h 5,8 C 29,1 C 0,0 km/h (0 Bft)
04.06.2023 21:00 17,2 C 16,3 C 14,8 C 29,1 C 29,1 C 11,9 C 47 % 38 % 1022,2 hPa 0,0 l/m 0,0 km/h (0 Bft) N 0,07 h 5,7 C 29,1 C 0,0 km/h (0 Bft)
04.06.2023 22:00 13,7 C 16,3 C 11,9 C 29,1 C 29,1 C 15,4 C 58 % 47 % 1022,8 hPa 0,0 l/m 0,0 km/h (0 Bft) N 0,00 h 5,4 C 29,1 C 0,0 km/h (0 Bft)
04.06.2023 23:00 11,4 C 16,3 C 10,1 C 29,1 C 29,1 C 17,7 C 66 % 53 % 1023,1 hPa 0,0 l/m 0,0 km/h (0 Bft) N 0,00 h 5,3 C 29,1 C 0,0 km/h (0 Bft)
Min-Datum _ 04.06.23 04.06.23 04.06.23 04.06.23 04.06.23 29.05.23 04.06.23 03.06.23 01.06.23 - 29.05.23 - - 03.06.23 04.06.23 29.05.23
_ Min-Zeit 05:40 07:55 05:10 05:10 05:10 00:00 16:30 14:15 19:20 - 00:00 - - 05:40 05:10 00:00
Minimum _ 3,5 C 14,4 C 3,0 C 3,0 C 1,9 C 0,0 C 31 % 25 % 1017,3 hPa - 0,0 km/h (0 Bft) - - 0,6 C 1,9 C 0,0 km/h (0 Bft)
Max-Datum _ 01.06.23 01.06.23 01.06.23 29.05.23 29.05.23 04.06.23 29.05.23 29.05.23 31.05.23 29.05.23 03.06.23 - 31.05.23 01.06.23 29.05.23 31.05.23
_ Max-Zeit 13:55 21:05 15:05 15:10 15:10 23:55 07:05 06:55 08:26 00:00 13:55 - 14:27 13:10 15:10 14:41
Maximum _ 24,9 C 17,7 C 25,7 C 32,1 C 32,1 C 18,6 C 88 % 76 % 1026,8 hPa 0,0 l/m 7,6 km/h
O-NO (2 Bft)
- 0,27 h 14,1 C 32,1 C 19,0 km/h
O-NO (3 Bft)
Durchschnitt _ 15,0 C 16,3 C 14,2 C 18,3 C 17,9 C 3,5 C 62 % 51 % 1022,6 hPa #0,0 l/m 0,5 km/h (0 Bft) O-NO #70:36 h 6,9 C 17,9 C 1,0 km/h (0 Bft)
2023 www.wetterstation-wechselburg.de